CDT,Max TemperatureF,Mean TemperatureF,Min TemperatureF,Max Dew PointF,MeanDew PointF,Min DewpointF,Max Humidity, Mean Humidity, Min Humidity, Max Sea Level PressureIn, Mean Sea Level PressureIn, Min Sea Level PressureIn, Max VisibilityMiles, Mean VisibilityMiles, Min VisibilityMiles, Max Wind SpeedMPH, Mean Wind SpeedMPH, Max Gust SpeedMPH,PrecipitationIn, CloudCover, Events, WindDirDegrees
2013-3-1,53,42,32,32,28,23,81,57,37,30.31,30.25,30.20,10,10,10,15,7,23,0.00,1,,329
2013-3-2,51,42,32,28,22,18,80,51,28,30.44,30.34,30.25,10,10,10,18,10,23,0.00,0,,336
2013-3-3,68,49,30,41,28,23,80,46,24,30.25,30.06,29.84,10,10,10,24,10,31,0.00,0,,168
2013-3-4,82,68,53,50,44,37,72,48,21,29.83,29.71,29.62,10,10,10,25,19,32,0.00,0,,183
2013-3-5,62,52,41,46,24,14,62,39,20,30.37,30.23,29.76,10,10,10,30,16,40,0.00,0,,334
2013-3-6,59,46,33,27,21,12,65,40,21,30.47,30.35,30.22,10,10,10,14,7,18,0.00,0,,15
2013-3-7,69,52,35,32,26,18,65,38,17,30.26,30.19,30.12,10,10,10,17,6,24,0.00,0,,142
2013-3-8,63,56,50,55,48,32,82,71,47,30.21,30.12,30.02,10,10,7,14,9,,0.03,6,,140
2013-3-9,68,64,59,63,58,53,93,81,75,30.01,29.82,29.65,10,8,2,21,13,26,0.07,8,,155
2013-3-10,63,52,40,60,39,29,92,64,48,30.10,29.92,29.73,10,9,2,26,14,34,0.59,5,,301
2013-3-11,58,46,33,31,25,13,84,51,19,30.14,30.08,30.01,10,10,10,16,7,24,0.00,0,,309
2013-3-12,66,50,34,38,29,24,80,48,21,30.32,30.17,30.05,10,10,10,15,5,20,0.00,0,,75
2013-3-13,68,55,42,38,32,30,76,45,25,30.46,30.38,30.32,10,10,10,10,4,,0.00,0,,82
2013-3-14,75,59,43,43,38,30,69,46,29,30.37,30.29,30.19,10,10,10,20,9,28,0.00,0,,169
2013-3-15,79,64,50,52,45,39,90,54,27,30.19,30.07,29.92,10,10,10,23,11,32,0.00,0,,179
2013-3-16,80,68,55,57,53,46,89,59,39,29.91,29.82,29.71,10,10,10,24,16,33,0.00,0,,173
2013-3-17,75,66,57,60,55,49,82,65,41,29.81,29.74,29.67,10,10,10,23,14,30,0.00,6,,192
2013-3-18,68,60,52,62,48,36,90,63,39,30.03,29.83,29.66,10,9,5,18,10,29,0.00,1,,17
2013-3-19,69,55,41,42,35,30,79,49,30,30.13,30.04,29.98,10,10,10,16,5,20,0.00,1,,48
2013-3-20,65,54,44,37,30,24,65,40,22,30.32,30.19,30.04,10,10,10,12,6,18,0.00,0,,14
2013-3-21,70,59,49,55,39,27,69,47,33,30.05,29.81,29.60,10,10,10,24,9,33,0.00,4,,139
2013-3-22,65,56,46,60,48,43,92,82,70,29.86,29.74,29.59,10,8,4,20,11,25,0.00,8,,12
2013-3-23,54,50,46,49,46,44,94,87,78,29.86,29.77,29.68,10,8,2,20,6,24,0.13,8,,20
2013-3-24,52,46,39,47,28,19,92,54,32,30.19,30.05,29.81,10,10,4,28,18,36,0.02,4,,323
2013-3-25,54,42,31,24,18,11,66,39,19,30.42,30.32,30.19,10,10,10,20,11,29,0.00,0,,331
2013-3-26,56,41,27,23,19,16,68,40,24,30.53,30.41,30.32,10,10,10,7,3,,0.00,0,,30
2013-3-27,69,51,33,38,29,20,70,43,25,30.34,30.24,30.11,10,10,10,22,9,28,0.00,0,,156
2013-3-28,69,58,47,54,49,40,83,65,54,30.24,30.18,30.11,10,10,10,16,11,23,0.00,4,,155
2013-3-29,76,67,59,56,55,54,82,67,48,30.21,30.14,30.05,10,10,10,18,11,25,0.00,8,,162
2013-3-30,77,65,53,62,58,52,94,77,56,30.11,30.00,29.90,10,9,1,18,9,25,0.67,5,,174
2013-3-31,72,64,56,62,56,52,94,74,48,29.99,29.93,29.82,10,10,5,31,8,41,0.15,3,,36